createdAt,value
2023-12-05T00:00:09.314Z,-6.12
2023-12-05T00:02:36.825Z,-5.97
2023-12-05T00:05:04.839Z,-6.01
2023-12-05T00:07:32.535Z,-6.07
2023-12-05T00:10:01.380Z,-5.68
2023-12-05T00:12:28.970Z,-5.48
2023-12-05T00:14:56.437Z,-5.97
2023-12-05T00:17:23.864Z,-5.93
2023-12-05T00:19:51.349Z,-5.99
2023-12-05T00:22:21.955Z,-6.38
2023-12-05T00:24:49.548Z,-6.47
2023-12-05T00:27:18.713Z,-6.46
2023-12-05T00:29:49.034Z,-6.30
2023-12-05T00:32:17.052Z,-6.46
2023-12-05T00:34:47.480Z,-6.54
2023-12-05T00:37:15.114Z,-6.31
2023-12-05T00:39:43.451Z,-6.75
2023-12-05T00:42:11.087Z,-6.17
2023-12-05T00:44:38.633Z,-6.27
2023-12-05T00:47:07.458Z,-6.02
2023-12-05T00:49:37.978Z,-6.09
2023-12-05T00:52:06.142Z,-6.24
2023-12-05T00:54:33.698Z,-6.54
2023-12-05T00:57:01.140Z,-5.96
2023-12-05T00:59:28.637Z,-6.08
2023-12-05T01:01:56.756Z,-5.32
2023-12-05T01:04:25.137Z,-6.16
2023-12-05T01:06:52.842Z,-5.77
2023-12-05T01:09:21.795Z,-6.24
2023-12-05T01:11:50.128Z,-5.68
2023-12-05T01:14:17.623Z,-5.70
2023-12-05T01:16:45.282Z,-5.95
2023-12-05T01:19:13.373Z,-5.78
2023-12-05T01:21:41.374Z,-5.82
2023-12-05T01:24:09.141Z,-5.74
2023-12-05T01:26:36.570Z,-5.89
2023-12-05T01:29:04.671Z,-6.02
2023-12-05T01:31:32.639Z,-6.02
2023-12-05T01:34:00.349Z,-6.11
2023-12-05T01:36:28.596Z,-5.70
2023-12-05T01:38:56.618Z,-5.80
2023-12-05T01:41:24.836Z,-6.09
2023-12-05T01:43:52.351Z,-6.06
2023-12-05T01:46:21.775Z,-5.87
2023-12-05T01:48:50.042Z,-5.71
2023-12-05T01:51:18.319Z,-5.85
2023-12-05T01:53:47.597Z,-5.89
2023-12-05T01:56:15.545Z,-5.86
2023-12-05T01:58:43.142Z,-5.91
2023-12-05T02:01:14.504Z,-6.04
2023-12-05T02:03:42.170Z,-6.00
2023-12-05T02:06:11.788Z,-6.20
2023-12-05T02:08:41.192Z,-5.90
2023-12-05T02:11:09.054Z,-6.29
2023-12-05T02:13:37.059Z,-6.12
2023-12-05T02:16:32.829Z,-5.84
2023-12-05T02:19:43.639Z,-5.57
2023-12-05T02:23:13.536Z,-6.00
2023-12-05T02:25:59.300Z,-5.76
2023-12-05T02:28:27.592Z,-5.56
2023-12-05T02:30:55.072Z,-6.08
2023-12-05T02:33:22.822Z,-5.95
2023-12-05T02:36:05.262Z,-5.72
2023-12-05T02:38:50.132Z,-5.83
2023-12-05T02:41:27.134Z,-5.62
2023-12-05T02:44:12.680Z,-5.46
2023-12-05T02:46:43.932Z,-5.82
2023-12-05T02:49:13.402Z,-5.54
2023-12-05T02:51:43.252Z,-5.72
2023-12-05T02:54:10.783Z,-5.83
2023-12-05T02:56:38.336Z,-5.59
2023-12-05T02:59:06.649Z,-6.02
2023-12-05T03:01:43.739Z,-5.68
2023-12-05T03:04:11.405Z,-5.47
2023-12-05T03:06:39.007Z,-5.86
2023-12-05T03:09:06.600Z,-5.66
2023-12-05T03:11:34.242Z,-5.15
2023-12-05T03:14:04.829Z,-5.48
2023-12-05T03:16:32.352Z,-5.83
2023-12-05T03:19:00.554Z,-5.81
2023-12-05T03:21:28.567Z,-5.81
2023-12-05T03:23:56.205Z,-5.32
2023-12-05T03:26:25.063Z,-5.41
2023-12-05T03:28:53.752Z,-5.49
2023-12-05T03:31:21.343Z,-5.61
2023-12-05T03:33:48.855Z,-5.68
2023-12-05T03:36:16.784Z,-5.69
2023-12-05T03:38:44.234Z,-5.75
2023-12-05T03:41:11.812Z,-5.87
2023-12-05T03:43:39.277Z,-5.70
2023-12-05T03:46:07.439Z,-5.47
2023-12-05T03:48:35.187Z,-5.11
2023-12-05T03:51:03.029Z,-5.51
2023-12-05T03:53:30.671Z,-5.84
2023-12-05T03:55:58.151Z,-5.77
2023-12-05T03:58:25.765Z,-5.96
2023-12-05T04:00:53.273Z,-5.58
2023-12-05T04:03:24.816Z,-5.51
2023-12-05T04:05:52.618Z,-5.28
2023-12-05T04:08:20.169Z,-5.75
2023-12-05T04:10:48.161Z,-5.66
2023-12-05T04:13:15.809Z,-5.62
2023-12-05T04:15:43.531Z,-5.73
2023-12-05T04:18:11.108Z,-5.62
2023-12-05T04:20:39.437Z,-5.32
2023-12-05T04:23:07.028Z,-5.85
2023-12-05T04:25:34.707Z,-4.70
2023-12-05T04:28:02.141Z,-5.07
2023-12-05T04:30:30.150Z,-4.40
2023-12-05T04:32:58.015Z,-4.74
2023-12-05T04:35:25.679Z,-5.28
2023-12-05T04:37:53.356Z,-4.86
2023-12-05T04:40:20.839Z,-4.08
2023-12-05T04:42:48.310Z,-3.74
2023-12-05T04:45:16.169Z,-4.03
2023-12-05T04:47:43.942Z,-4.53
2023-12-05T04:50:11.763Z,-4.72
2023-12-05T04:52:39.262Z,-5.08
2023-12-05T04:55:07.504Z,-4.91
2023-12-05T04:57:35.197Z,-5.23
2023-12-05T05:00:02.978Z,-4.80
2023-12-05T05:02:30.652Z,-5.05
2023-12-05T05:04:58.141Z,-4.84
2023-12-05T05:07:25.634Z,-5.07
2023-12-05T05:09:53.712Z,-4.90
2023-12-05T05:12:21.361Z,-4.81
2023-12-05T05:14:52.002Z,-4.38
2023-12-05T05:17:19.469Z,-4.34
2023-12-05T05:19:47.666Z,-4.56
2023-12-05T05:22:15.781Z,-5.24
2023-12-05T05:24:43.390Z,-5.39
2023-12-05T05:27:13.298Z,-5.30
2023-12-05T05:29:41.004Z,-4.99
2023-12-05T05:32:08.482Z,-5.14
2023-12-05T05:34:36.238Z,-4.98
2023-12-05T05:37:04.171Z,-4.83
2023-12-05T05:39:31.934Z,-5.03
2023-12-05T05:42:02.515Z,-5.18
2023-12-05T05:44:30.160Z,-3.79
2023-12-05T05:46:57.605Z,-4.14
2023-12-05T05:49:25.969Z,-4.15
2023-12-05T05:51:53.677Z,-4.57
2023-12-05T05:54:21.653Z,-5.24
2023-12-05T05:56:49.041Z,-4.30
2023-12-05T05:59:16.505Z,-4.51
2023-12-05T06:01:44.158Z,-4.62
2023-12-05T06:04:11.765Z,-5.11
2023-12-05T06:06:39.318Z,-4.89
2023-12-05T06:09:19.626Z,-4.58
2023-12-05T06:11:58.916Z,-4.95
2023-12-05T06:14:26.967Z,-4.95
2023-12-05T06:16:55.052Z,-4.53
2023-12-05T06:19:22.618Z,-5.18
2023-12-05T06:21:50.635Z,-5.42
2023-12-05T06:24:18.149Z,-5.38
2023-12-05T06:26:46.388Z,-4.35
2023-12-05T06:29:13.937Z,-4.27
2023-12-05T06:31:42.022Z,-5.04
2023-12-05T06:34:09.801Z,-4.56
2023-12-05T06:36:37.424Z,-4.11
2023-12-05T06:39:05.721Z,-4.59
2023-12-05T06:41:33.321Z,-4.32
2023-12-05T06:44:00.784Z,-4.31
2023-12-05T06:46:28.423Z,-4.44
2023-12-05T06:48:56.297Z,-4.32
2023-12-05T06:51:24.324Z,-3.25
2023-12-05T06:53:52.002Z,-4.86
2023-12-05T06:56:21.971Z,-4.96
2023-12-05T06:58:49.499Z,-4.39
2023-12-05T07:01:18.297Z,-5.18
2023-12-05T07:03:51.192Z,-4.98
2023-12-05T07:06:24.434Z,-4.70
2023-12-05T07:08:52.401Z,-4.73
2023-12-05T07:11:20.102Z,-5.03
2023-12-05T07:13:52.588Z,-5.07
2023-12-05T07:16:20.117Z,-6.06
2023-12-05T07:18:48.128Z,-4.89
2023-12-05T07:21:15.870Z,-5.24
2023-12-05T07:23:52.610Z,-5.26
2023-12-05T07:26:26.977Z,-4.99
2023-12-05T07:28:54.715Z,-5.24
2023-12-05T07:31:23.028Z,-5.31
2023-12-05T07:33:51.345Z,-5.41
2023-12-05T07:36:18.978Z,-5.45
2023-12-05T07:38:46.449Z,-4.80
2023-12-05T07:41:22.116Z,-5.33
2023-12-05T07:43:51.085Z,-5.19
2023-12-05T07:46:19.797Z,-5.32
2023-12-05T07:48:49.973Z,-5.13
2023-12-05T07:51:20.495Z,-5.18
2023-12-05T07:53:54.599Z,-5.19
2023-12-05T07:56:21.934Z,-4.83
2023-12-05T07:58:49.209Z,-4.90
2023-12-05T08:01:18.398Z,-4.40
2023-12-05T08:03:45.987Z,-4.62
2023-12-05T08:06:13.586Z,-4.33
2023-12-05T08:08:41.523Z,-4.21
2023-12-05T08:11:11.460Z,-3.98
2023-12-05T08:13:39.342Z,-4.08
2023-12-05T08:16:07.399Z,-3.87
2023-12-05T08:18:38.085Z,-4.01
2023-12-05T08:21:06.980Z,-4.07
2023-12-05T08:23:34.411Z,-3.86
2023-12-05T08:26:01.784Z,-4.42
2023-12-05T08:28:30.923Z,-3.87
2023-12-05T08:30:58.419Z,-3.85
2023-12-05T08:33:28.746Z,-4.37
2023-12-05T08:35:56.378Z,-3.84
2023-12-05T08:38:23.927Z,-3.84
2023-12-05T08:40:53.650Z,-3.96
2023-12-05T08:43:24.862Z,-3.89
2023-12-05T08:45:52.880Z,-4.00
2023-12-05T08:48:20.362Z,-3.72
2023-12-05T08:50:47.961Z,-3.32
2023-12-05T08:53:15.331Z,-3.25
2023-12-05T08:55:43.917Z,-3.76
2023-12-05T08:58:11.523Z,-3.19
2023-12-05T09:00:39.058Z,-3.32
2023-12-05T09:03:06.525Z,-2.77
2023-12-05T09:05:34.034Z,-3.31
2023-12-05T09:08:02.445Z,-3.15
2023-12-05T09:10:29.841Z,-3.24
2023-12-05T09:12:57.207Z,-3.16
2023-12-05T09:15:26.221Z,-2.95
2023-12-05T09:17:53.929Z,-3.22
2023-12-05T09:20:21.253Z,-3.65
2023-12-05T09:22:49.745Z,-3.74
2023-12-05T09:25:18.686Z,-3.58
2023-12-05T09:27:46.215Z,-3.63
2023-12-05T09:30:16.010Z,-2.80
2023-12-05T09:32:43.701Z,-3.12
2023-12-05T09:35:10.975Z,-3.58
2023-12-05T09:37:38.352Z,-3.01
2023-12-05T09:40:06.615Z,-3.32
2023-12-05T09:42:37.577Z,-2.60
2023-12-05T09:45:09.696Z,-2.03
2023-12-05T09:47:38.109Z,-2.74
2023-12-05T09:50:06.815Z,-2.85
2023-12-05T09:52:35.574Z,-2.91
2023-12-05T09:55:04.563Z,-3.03
2023-12-05T09:57:32.678Z,-2.88
2023-12-05T10:00:00.344Z,-3.15
2023-12-05T10:02:28.266Z,-3.34
2023-12-05T10:05:02.596Z,-3.02
2023-12-05T10:07:31.051Z,-3.26
2023-12-05T10:09:59.745Z,-2.71
2023-12-05T10:12:27.713Z,-1.22
2023-12-05T10:14:55.692Z,-1.62
2023-12-05T10:17:23.272Z,-1.84
2023-12-05T10:19:51.096Z,-2.29
2023-12-05T10:22:18.798Z,-2.75
2023-12-05T10:24:52.634Z,-2.39
2023-12-05T10:27:20.184Z,-2.04
2023-12-05T10:29:48.332Z,-2.52
2023-12-05T10:32:15.821Z,-1.37
2023-12-05T10:34:55.922Z,-1.69
2023-12-05T10:37:31.273Z,-2.80
2023-12-05T10:40:00.452Z,-2.59
2023-12-05T10:42:31.825Z,-2.22
2023-12-05T10:44:59.446Z,-3.00
2023-12-05T10:47:29.878Z,-2.28
2023-12-05T10:49:58.272Z,-3.06
2023-12-05T10:52:26.640Z,-2.98
2023-12-05T10:55:00.648Z,-2.48
2023-12-05T10:57:32.450Z,-3.16
2023-12-05T11:00:00.683Z,-2.73
2023-12-05T11:02:28.347Z,-2.27
2023-12-05T11:04:57.147Z,-2.49
2023-12-05T11:07:24.588Z,-2.41
2023-12-05T11:09:52.113Z,-4.00
2023-12-05T11:12:21.075Z,-2.95
2023-12-05T11:14:53.913Z,-2.71
2023-12-05T11:17:46.290Z,-2.34
2023-12-05T11:21:02.093Z,-2.71
2023-12-05T11:24:35.155Z,-3.21
2023-12-05T11:27:36.260Z,-2.38
2023-12-05T11:30:49.989Z,-2.04
2023-12-05T11:34:04.028Z,-2.06
2023-12-05T11:37:41.710Z,-2.60
2023-12-05T11:40:10.346Z,-2.37
2023-12-05T11:42:38.056Z,-0.90
2023-12-05T11:45:25.628Z,-1.66
2023-12-05T11:47:53.287Z,-1.55
2023-12-05T11:50:20.970Z,-1.44
2023-12-05T11:52:48.458Z,-1.09
2023-12-05T11:55:16.764Z,-1.09
2023-12-05T11:57:45.446Z,-1.27
2023-12-05T12:00:13.363Z,-2.22
2023-12-05T12:02:48.962Z,-1.33
2023-12-05T12:05:17.520Z,-1.53
2023-12-05T12:07:59.804Z,-0.89
2023-12-05T12:10:30.288Z,-1.81
2023-12-05T12:12:58.941Z,-1.19
2023-12-05T12:15:27.477Z,-1.84
2023-12-05T12:17:55.793Z,-1.31
2023-12-05T12:20:23.746Z,-1.48
2023-12-05T12:22:53.011Z,-2.21
2023-12-05T12:25:20.648Z,-2.35
2023-12-05T12:27:48.802Z,-2.41
2023-12-05T12:30:19.984Z,-2.16
2023-12-05T12:32:59.696Z,-1.43
2023-12-05T12:35:27.651Z,-1.83
2023-12-05T12:37:56.145Z,-2.27
2023-12-05T12:40:24.502Z,-1.99
2023-12-05T12:42:56.750Z,-1.57
2023-12-05T12:45:27.387Z,-1.12
2023-12-05T12:47:55.463Z,-1.94
2023-12-05T12:50:23.043Z,-1.84
2023-12-05T12:52:50.463Z,-2.28
2023-12-05T12:55:20.879Z,-2.27
2023-12-05T12:57:51.750Z,-3.20
2023-12-05T13:00:31.947Z,-2.08
2023-12-05T13:03:06.917Z,-1.35
2023-12-05T13:05:42.634Z,-2.05
2023-12-05T13:08:10.214Z,-2.59
2023-12-05T13:10:38.865Z,-2.67
2023-12-05T13:13:08.329Z,-2.40
2023-12-05T13:15:35.955Z,-1.86
2023-12-05T13:18:09.075Z,-2.40
2023-12-05T13:21:09.990Z,-2.54
2023-12-05T13:23:38.241Z,-1.99
2023-12-05T13:26:07.328Z,-2.33
2023-12-05T13:28:35.350Z,-2.22
2023-12-05T13:31:03.116Z,-1.55
2023-12-05T13:33:30.455Z,-1.71
2023-12-05T13:35:57.843Z,-2.16
2023-12-05T13:38:25.498Z,-3.08
2023-12-05T13:40:52.896Z,-1.85
2023-12-05T13:43:20.290Z,-2.11
2023-12-05T13:45:47.755Z,-1.51
2023-12-05T13:48:15.327Z,-2.18
2023-12-05T13:50:42.697Z,-1.97
2023-12-05T13:53:10.135Z,-2.28
2023-12-05T13:55:37.508Z,-2.72
2023-12-05T13:58:05.235Z,-2.65
2023-12-05T14:00:32.552Z,-1.12
2023-12-05T14:02:59.969Z,-2.29
2023-12-05T14:05:27.583Z,-1.70
2023-12-05T14:07:55.436Z,-2.45
2023-12-05T14:10:22.878Z,-2.25
2023-12-05T14:12:50.460Z,-2.47
2023-12-05T14:15:18.243Z,-1.54
2023-12-05T14:17:45.601Z,-2.03
2023-12-05T14:20:13.120Z,-2.58
2023-12-05T14:22:40.486Z,-2.69
2023-12-05T14:25:09.390Z,-2.60
2023-12-05T14:27:37.101Z,-2.16
2023-12-05T14:30:06.268Z,-2.62
2023-12-05T14:32:33.984Z,-2.43
2023-12-05T14:35:01.560Z,-1.64
2023-12-05T14:37:29.192Z,-1.99
2023-12-05T14:39:57.382Z,-2.26
2023-12-05T14:42:25.333Z,-1.82
2023-12-05T14:44:52.957Z,-2.23
2023-12-05T14:47:20.461Z,-3.22
2023-12-05T14:49:47.955Z,-2.85
2023-12-05T14:52:15.806Z,-2.61
2023-12-05T14:54:43.328Z,-2.25
2023-12-05T14:57:10.631Z,-3.01
2023-12-05T14:59:38.086Z,-2.25
2023-12-05T15:02:05.772Z,-2.91
2023-12-05T15:04:33.428Z,-3.10
2023-12-05T15:07:01.215Z,-2.93
2023-12-05T15:09:28.669Z,-2.35
2023-12-05T15:11:56.051Z,-2.66
2023-12-05T15:14:23.345Z,-3.04
2023-12-05T15:16:51.761Z,-3.17
2023-12-05T15:19:19.376Z,-3.13
2023-12-05T15:21:46.996Z,-2.86
2023-12-05T15:24:14.333Z,-2.77
2023-12-05T15:26:41.824Z,-2.55
2023-12-05T15:29:09.511Z,-2.64
2023-12-05T15:31:43.496Z,-2.67
2023-12-05T15:34:11.851Z,-2.95
2023-12-05T15:36:41.173Z,-2.50
2023-12-05T15:39:17.646Z,-3.46
2023-12-05T15:41:45.997Z,-3.19
2023-12-05T15:44:13.417Z,-3.12
2023-12-05T15:46:40.894Z,-2.70
2023-12-05T15:49:08.479Z,-2.69
2023-12-05T15:51:37.485Z,-3.51
2023-12-05T15:54:05.491Z,-2.12
2023-12-05T15:56:33.548Z,-3.15
2023-12-05T15:59:00.977Z,-3.50
2023-12-05T16:01:42.996Z,-3.00
2023-12-05T16:04:10.856Z,-3.81
2023-12-05T16:06:38.319Z,-2.42
2023-12-05T16:09:06.288Z,-3.73
2023-12-05T16:11:34.609Z,-2.93
2023-12-05T16:14:02.047Z,-2.96
2023-12-05T16:16:29.629Z,-2.44
2023-12-05T16:18:58.254Z,-3.08
2023-12-05T16:21:25.629Z,-3.07
2023-12-05T16:23:53.067Z,-2.94
2023-12-05T16:26:20.610Z,-2.59
2023-12-05T16:28:47.988Z,-3.47
2023-12-05T16:31:15.380Z,-3.53
2023-12-05T16:33:43.323Z,-3.00
2023-12-05T16:36:11.288Z,-3.34
2023-12-05T16:38:38.683Z,-3.33
2023-12-05T16:41:06.236Z,-2.85
2023-12-05T16:43:34.120Z,-3.18
2023-12-05T16:46:01.526Z,-3.11
2023-12-05T16:48:29.012Z,-3.25
2023-12-05T16:50:56.412Z,-2.68
2023-12-05T16:53:23.837Z,-3.51
2023-12-05T16:55:52.103Z,-3.09
2023-12-05T16:58:21.838Z,-3.68
2023-12-05T17:00:49.596Z,-2.57
2023-12-05T17:03:17.510Z,-2.80
2023-12-05T17:05:44.938Z,-2.62
2023-12-05T17:08:12.391Z,-2.19
2023-12-05T17:10:40.066Z,-3.24
2023-12-05T17:13:07.361Z,-2.95
2023-12-05T17:15:36.323Z,-2.50
2023-12-05T17:18:04.264Z,-3.58
2023-12-05T17:20:31.681Z,-3.00
2023-12-05T17:22:59.056Z,-2.80
2023-12-05T17:25:26.406Z,-2.39
2023-12-05T17:27:53.951Z,-2.14
2023-12-05T17:30:21.516Z,-2.26
2023-12-05T17:32:49.029Z,-3.45
2023-12-05T17:35:16.568Z,-3.07
2023-12-05T17:37:43.966Z,-2.70
2023-12-05T17:40:12.249Z,-3.03
2023-12-05T17:42:39.738Z,-3.30
2023-12-05T17:45:07.968Z,-3.52
2023-12-05T17:47:35.405Z,-3.57
2023-12-05T17:50:02.891Z,-3.20
2023-12-05T17:52:30.287Z,-3.33
2023-12-05T17:54:57.656Z,-2.71
2023-12-05T17:57:24.934Z,-2.83
2023-12-05T17:59:52.351Z,-2.31
2023-12-05T18:02:19.739Z,-3.16
2023-12-05T18:04:47.262Z,-3.06
2023-12-05T18:07:51.372Z,-3.14
2023-12-05T18:10:03.079Z,-3.06
2023-12-05T18:12:30.722Z,-2.85
2023-12-05T18:14:59.208Z,-3.36
2023-12-05T18:17:26.984Z,-3.67
2023-12-05T18:19:54.541Z,-3.60
2023-12-05T18:22:21.997Z,-3.82
2023-12-05T18:24:49.918Z,-2.30
2023-12-05T18:27:17.674Z,-3.80
2023-12-05T18:29:48.110Z,-3.30
2023-12-05T18:32:16.012Z,-2.73
2023-12-05T18:34:44.866Z,-2.98
2023-12-05T18:37:12.221Z,-3.31
2023-12-05T18:39:39.655Z,-3.50
2023-12-05T18:42:07.671Z,-3.65
2023-12-05T18:44:35.920Z,-2.76
2023-12-05T18:47:03.442Z,-2.78
2023-12-05T18:49:30.931Z,-3.16
2023-12-05T18:51:58.454Z,-3.17
2023-12-05T18:54:25.851Z,-2.30
2023-12-05T18:56:53.280Z,-3.41
2023-12-05T18:59:20.780Z,-3.47
2023-12-05T19:01:48.308Z,-3.49
2023-12-05T19:04:15.706Z,-3.33
2023-12-05T19:06:43.211Z,-2.85
2023-12-05T19:09:10.880Z,-3.36
2023-12-05T19:11:38.455Z,-3.32
2023-12-05T19:14:05.969Z,-3.01
2023-12-05T19:16:34.865Z,-2.97
2023-12-05T19:19:05.645Z,-2.78
2023-12-05T19:21:33.068Z,-3.11
2023-12-05T19:24:00.670Z,-3.42
2023-12-05T19:26:30.151Z,-3.37
2023-12-05T19:29:00.364Z,-3.60
2023-12-05T19:31:30.407Z,-3.37
2023-12-05T19:33:58.302Z,-3.30
2023-12-05T19:36:25.910Z,-2.19
2023-12-05T19:38:54.100Z,-3.57
2023-12-05T19:41:21.814Z,-3.41
2023-12-05T19:43:49.299Z,-3.40
2023-12-05T19:46:16.733Z,-3.84
2023-12-05T19:48:45.626Z,-3.83
2023-12-05T19:51:13.131Z,-3.62
2023-12-05T19:53:40.495Z,-3.62
2023-12-05T19:56:09.013Z,-3.53
2023-12-05T19:58:40.602Z,-4.04
2023-12-05T20:01:08.092Z,-3.80
2023-12-05T20:03:35.753Z,-3.55
2023-12-05T20:06:03.885Z,-3.71
2023-12-05T20:08:31.317Z,-3.36
2023-12-05T20:10:58.728Z,-3.83
2023-12-05T20:13:26.186Z,-3.89
2023-12-05T20:15:54.227Z,-3.72
2023-12-05T20:18:21.939Z,-3.77
2023-12-05T20:20:49.586Z,-3.71
2023-12-05T20:23:17.016Z,-3.78
2023-12-05T20:25:47.515Z,-3.55
2023-12-05T20:28:15.894Z,-3.86
2023-12-05T20:30:43.716Z,-4.00
2023-12-05T20:33:11.104Z,-3.38
2023-12-05T20:35:38.636Z,-3.52
2023-12-05T20:38:06.088Z,-3.35
2023-12-05T20:40:33.439Z,-3.74
2023-12-05T20:43:01.550Z,-4.22
2023-12-05T20:45:29.731Z,-4.42
2023-12-05T20:47:58.734Z,-3.84
2023-12-05T20:50:26.190Z,-3.16
2023-12-05T20:52:55.975Z,-4.05
2023-12-05T20:55:23.294Z,-3.86
2023-12-05T20:57:50.661Z,-3.47
2023-12-05T21:00:18.894Z,-3.78
2023-12-05T21:02:47.294Z,-3.55
2023-12-05T21:05:14.980Z,-3.63
2023-12-05T21:07:45.936Z,-3.44
2023-12-05T21:10:13.560Z,-3.62
2023-12-05T21:12:40.929Z,-3.93
2023-12-05T21:15:12.108Z,-3.55
2023-12-05T21:17:39.616Z,-4.28
2023-12-05T21:20:11.493Z,-3.96
2023-12-05T21:22:39.462Z,-3.49
2023-12-05T21:25:07.789Z,-3.51
2023-12-05T21:27:35.204Z,-3.44
2023-12-05T21:30:03.041Z,-3.83
2023-12-05T21:32:30.378Z,-3.25
2023-12-05T21:34:58.077Z,-3.22
2023-12-05T21:37:25.986Z,-3.50
2023-12-05T21:39:53.553Z,-3.52
2023-12-05T21:42:20.980Z,-3.36
2023-12-05T21:44:48.301Z,-3.78
2023-12-05T21:47:15.861Z,-3.70
2023-12-05T21:49:43.314Z,-3.58
2023-12-05T21:52:11.193Z,-3.65
2023-12-05T21:54:38.638Z,-3.55
2023-12-05T21:57:06.213Z,-3.29
2023-12-05T21:59:33.648Z,-3.24
2023-12-05T22:02:01.101Z,-3.31
2023-12-05T22:04:28.497Z,-3.77
2023-12-05T22:06:55.928Z,-3.79
2023-12-05T22:09:23.442Z,-3.74
2023-12-05T22:11:50.762Z,-3.35
2023-12-05T22:14:21.128Z,-3.08
2023-12-05T22:16:48.474Z,-3.64
2023-12-05T22:19:15.868Z,-3.61
2023-12-05T22:21:44.479Z,-3.27
2023-12-05T22:24:20.274Z,-3.55
2023-12-05T22:26:52.684Z,-3.23
2023-12-05T22:29:20.038Z,-2.74
2023-12-05T22:31:47.566Z,-3.20
2023-12-05T22:34:18.041Z,-3.25
2023-12-05T22:36:46.193Z,-3.00
2023-12-05T22:39:13.635Z,-3.22
2023-12-05T22:41:45.038Z,-2.65
2023-12-05T22:44:12.532Z,-2.91
2023-12-05T22:46:40.116Z,-3.16
2023-12-05T22:49:07.782Z,-3.08
2023-12-05T22:51:35.895Z,-3.16
2023-12-05T22:54:03.267Z,-3.25
2023-12-05T22:56:30.647Z,-1.93
2023-12-05T22:58:58.048Z,-3.00
2023-12-05T23:01:25.471Z,-2.93
2023-12-05T23:03:52.952Z,-2.59
2023-12-05T23:06:20.312Z,-2.99
2023-12-05T23:08:47.682Z,-2.40
2023-12-05T23:11:15.180Z,-2.35
2023-12-05T23:13:42.644Z,-1.90
2023-12-05T23:16:10.212Z,-2.33
2023-12-05T23:18:37.675Z,-2.30
2023-12-05T23:21:05.403Z,-2.37
2023-12-05T23:23:32.885Z,-2.40
2023-12-05T23:26:00.298Z,-2.37
2023-12-05T23:28:27.791Z,-3.23
2023-12-05T23:30:55.608Z,-2.65
2023-12-05T23:33:23.352Z,-2.60
2023-12-05T23:35:50.768Z,-2.71
2023-12-05T23:38:18.068Z,-2.22
2023-12-05T23:40:45.458Z,-2.03
2023-12-05T23:43:12.777Z,-2.25
2023-12-05T23:45:40.143Z,-2.16
2023-12-05T23:48:07.869Z,-2.10
2023-12-05T23:50:35.331Z,-2.61
2023-12-05T23:53:03.331Z,-1.67
2023-12-05T23:55:30.849Z,-2.41
2023-12-05T23:57:58.389Z,-2.11
